createdAt,value
2019-01-05T00:00:10.064Z,19.83
2019-01-05T00:03:32.087Z,19.63
2019-01-05T00:07:02.224Z,18.03
2019-01-05T00:10:28.205Z,20.07
2019-01-05T00:14:06.115Z,17.73
2019-01-05T00:17:26.426Z,17.07
2019-01-05T00:20:49.544Z,18.00
2019-01-05T00:24:12.236Z,17.93
2019-01-05T00:27:51.724Z,16.13
2019-01-05T00:31:28.679Z,20.00
2019-01-05T00:35:12.691Z,21.20
2019-01-05T00:38:40.628Z,17.53
2019-01-05T00:42:18.311Z,17.80
2019-01-05T00:45:35.748Z,17.50
2019-01-05T00:48:55.699Z,16.50
2019-01-05T00:52:35.743Z,16.87
2019-01-05T00:56:00.542Z,19.73
2019-01-05T00:59:23.635Z,18.90
2019-01-05T01:02:57.023Z,18.27
2019-01-05T01:06:33.335Z,18.57
2019-01-05T01:09:55.093Z,19.43
2019-01-05T01:13:17.717Z,19.40
2019-01-05T01:16:48.079Z,18.67
2019-01-05T01:20:10.739Z,24.30
2019-01-05T01:23:36.143Z,23.00
2019-01-05T01:26:58.965Z,23.30
2019-01-05T01:30:23.691Z,27.50
2019-01-05T01:33:55.012Z,25.57
2019-01-05T01:37:17.896Z,27.20
2019-01-05T01:40:30.440Z,27.77
2019-01-05T01:43:55.443Z,29.93
2019-01-05T01:47:18.700Z,27.20
2019-01-05T01:50:42.459Z,30.37
2019-01-05T01:54:05.456Z,30.43
2019-01-05T01:57:30.067Z,30.77
2019-01-05T02:00:48.415Z,30.57
2019-01-05T02:04:12.799Z,26.97
2019-01-05T02:07:44.763Z,23.00
2019-01-05T02:11:07.087Z,29.47
2019-01-05T02:14:32.710Z,23.47
2019-01-05T02:18:00.859Z,26.03
2019-01-05T02:21:57.294Z,24.20
2019-01-05T02:25:37.991Z,25.30
2019-01-05T02:29:44.782Z,24.43
2019-01-05T02:33:45.732Z,20.53
2019-01-05T02:37:54.854Z,20.80
2019-01-05T02:42:06.907Z,16.80
2019-01-05T02:46:04.221Z,23.67
2019-01-05T02:50:08.611Z,18.03
2019-01-05T02:54:13.528Z,17.00
2019-01-05T02:58:15.965Z,17.37
2019-01-05T03:02:44.346Z,19.23
2019-01-05T03:06:36.799Z,16.47
2019-01-05T03:10:57.578Z,16.17
2019-01-05T03:14:46.991Z,19.67
2019-01-05T03:18:53.019Z,19.70
2019-01-05T03:23:07.478Z,21.03
2019-01-05T03:27:26.899Z,20.17
2019-01-05T03:31:32.360Z,21.30
2019-01-05T03:35:54.731Z,23.27
2019-01-05T03:40:26.855Z,18.67
2019-01-05T03:44:30.867Z,20.90
2019-01-05T03:48:38.703Z,21.37
2019-01-05T03:52:36.627Z,20.30
2019-01-05T03:56:30.115Z,22.00
2019-01-05T04:01:02.119Z,21.30
2019-01-05T04:05:11.972Z,22.20
2019-01-05T04:09:20.096Z,15.43
2019-01-05T04:13:27.972Z,17.43
2019-01-05T04:17:42.847Z,19.17
2019-01-05T04:21:37.843Z,17.80
2019-01-05T04:25:56.887Z,19.93
2019-01-05T04:29:42.101Z,16.20
2019-01-05T04:33:42.581Z,15.23
2019-01-05T04:37:52.508Z,15.07
2019-01-05T04:42:06.685Z,15.33
2019-01-05T04:46:05.285Z,12.30
2019-01-05T04:50:06.075Z,12.27
2019-01-05T04:54:26.028Z,8.60
2019-01-05T04:58:23.783Z,11.87
2019-01-05T05:02:42.284Z,9.57
2019-01-05T05:06:39.136Z,9.20
2019-01-05T05:11:12.970Z,7.50
2019-01-05T05:15:16.234Z,6.83
2019-01-05T05:19:14.031Z,6.43
2019-01-05T05:23:10.968Z,5.40
2019-01-05T05:27:16.115Z,5.70
2019-01-05T05:31:43.900Z,4.37
2019-01-05T05:35:44.379Z,5.50
2019-01-05T05:39:45.786Z,4.37
2019-01-05T05:43:50.908Z,4.67
2019-01-05T05:48:04.920Z,3.93
2019-01-05T05:52:17.495Z,3.20
2019-01-05T05:56:35.563Z,4.37
2019-01-05T06:00:33.234Z,3.93
2019-01-05T06:05:04.999Z,5.20
2019-01-05T06:09:01.375Z,3.07
2019-01-05T06:13:31.657Z,2.87
2019-01-05T06:17:25.228Z,4.23
2019-01-05T06:21:43.551Z,3.73
2019-01-05T06:25:55.103Z,3.30
2019-01-05T06:29:53.765Z,3.80
2019-01-05T06:34:02.560Z,2.60
2019-01-05T06:38:27.332Z,2.60
2019-01-05T06:42:18.656Z,3.07
2019-01-05T06:46:21.699Z,3.83
2019-01-05T06:50:28.121Z,3.63
2019-01-05T06:54:29.266Z,2.93
2019-01-05T06:58:39.237Z,4.33
2019-01-05T07:03:08.768Z,5.47
2019-01-05T07:07:18.474Z,2.70
2019-01-05T07:11:29.089Z,2.37
2019-01-05T07:15:14.955Z,4.00
2019-01-05T07:19:26.079Z,3.90
2019-01-05T07:23:34.391Z,5.40
2019-01-05T07:27:32.471Z,8.60
2019-01-05T07:31:49.475Z,4.17
2019-01-05T07:36:11.833Z,4.07
2019-01-05T07:40:37.677Z,4.57
2019-01-05T07:44:44.468Z,5.47
2019-01-05T07:48:59.323Z,4.03
2019-01-05T07:52:59.064Z,4.80
2019-01-05T07:57:16.555Z,4.23
2019-01-05T08:01:21.772Z,3.80
2019-01-05T08:05:33.996Z,4.27
2019-01-05T08:09:30.802Z,4.60
2019-01-05T08:13:32.853Z,3.63
2019-01-05T08:17:56.853Z,5.00
2019-01-05T08:21:56.547Z,5.20
2019-01-05T08:26:01.212Z,6.30
2019-01-05T08:30:11.619Z,5.30
2019-01-05T08:34:17.763Z,6.73
2019-01-05T08:38:14.592Z,6.77
2019-01-05T08:42:16.793Z,7.70
2019-01-05T08:46:17.655Z,3.10
2019-01-05T08:50:27.667Z,5.70
2019-01-05T08:54:16.831Z,9.93
2019-01-05T08:58:43.376Z,5.23
2019-01-05T09:03:03.784Z,3.80
2019-01-05T09:07:36.831Z,4.17
2019-01-05T09:11:55.471Z,5.63
2019-01-05T09:16:07.975Z,4.60
2019-01-05T09:20:19.159Z,4.23
2019-01-05T09:24:35.720Z,4.53
2019-01-05T09:28:30.412Z,5.50
2019-01-05T09:32:29.639Z,3.90
2019-01-05T09:36:39.256Z,4.00
2019-01-05T09:40:37.005Z,5.10
2019-01-05T09:44:27.508Z,6.23
2019-01-05T09:48:36.392Z,5.30
2019-01-05T09:52:45.007Z,6.00
2019-01-05T09:57:11.038Z,8.87
2019-01-05T10:01:23.446Z,14.00
2019-01-05T10:05:15.654Z,6.30
2019-01-05T10:09:15.939Z,6.80
2019-01-05T10:13:22.823Z,6.00
2019-01-05T10:17:32.691Z,4.30
2019-01-05T10:21:42.958Z,5.40
2019-01-05T10:26:09.011Z,5.07
2019-01-05T10:30:18.499Z,4.77
2019-01-05T10:34:24.057Z,4.13
2019-01-05T10:38:24.443Z,5.20
2019-01-05T10:42:33.051Z,5.03
2019-01-05T10:46:21.749Z,4.27
2019-01-05T10:50:22.823Z,4.17
2019-01-05T10:54:27.388Z,4.37
2019-01-05T10:58:46.324Z,5.80
2019-01-05T11:02:47.160Z,5.40
2019-01-05T11:06:54.751Z,7.57
2019-01-05T11:11:13.558Z,4.13
2019-01-05T11:15:31.842Z,5.13
2019-01-05T11:19:22.104Z,4.87
2019-01-05T11:23:30.752Z,5.00
2019-01-05T11:27:40.814Z,6.23
2019-01-05T11:31:59.554Z,4.63
2019-01-05T11:36:02.069Z,5.03
2019-01-05T11:40:36.751Z,4.90
2019-01-05T11:44:39.024Z,5.33
2019-01-05T11:48:29.706Z,6.50
2019-01-05T11:52:39.437Z,4.97
2019-01-05T11:57:00.439Z,5.80
2019-01-05T12:01:18.588Z,5.50
2019-01-05T12:05:20.275Z,6.87
2019-01-05T12:09:24.824Z,6.07
2019-01-05T12:13:28.329Z,8.80
2019-01-05T12:17:30.700Z,6.83
2019-01-05T12:21:31.088Z,7.50
2019-01-05T12:25:41.283Z,5.70
2019-01-05T12:29:49.687Z,7.97
2019-01-05T12:33:40.763Z,7.00
2019-01-05T12:38:10.395Z,6.33
2019-01-05T12:42:25.647Z,6.50
2019-01-05T12:46:37.663Z,7.00
2019-01-05T12:50:33.600Z,5.57
2019-01-05T12:54:33.196Z,5.80
2019-01-05T12:58:40.063Z,8.30
2019-01-05T13:02:39.858Z,8.27
2019-01-05T13:06:31.322Z,12.63
2019-01-05T13:10:41.624Z,10.33
2019-01-05T13:14:43.307Z,7.10
2019-01-05T13:18:39.830Z,7.27
2019-01-05T13:22:36.455Z,9.67
2019-01-05T13:26:54.015Z,7.37
2019-01-05T13:30:58.720Z,6.40
2019-01-05T13:35:25.371Z,11.13
2019-01-05T13:40:00.202Z,12.10
2019-01-05T13:44:18.868Z,9.43
2019-01-05T13:48:45.096Z,9.43
2019-01-05T13:53:00.224Z,10.77
2019-01-05T13:56:42.165Z,7.43
2019-01-05T14:00:04.701Z,9.93
2019-01-05T14:03:46.507Z,6.10
2019-01-05T14:07:25.599Z,5.87
2019-01-05T14:11:07.712Z,10.23
2019-01-05T14:14:28.947Z,6.50
2019-01-05T14:17:51.419Z,6.70
2019-01-05T14:21:14.255Z,5.57
2019-01-05T14:24:41.256Z,6.10
2019-01-05T14:28:14.241Z,7.63
2019-01-05T14:31:37.023Z,6.70
2019-01-05T14:34:57.735Z,6.80
2019-01-05T14:38:24.730Z,5.37
2019-01-05T14:41:47.303Z,6.93
2019-01-05T14:45:20.349Z,5.07
2019-01-05T14:48:43.187Z,6.40
2019-01-05T14:52:13.565Z,7.37
2019-01-05T14:55:49.605Z,6.83
2019-01-05T14:59:13.654Z,8.07
2019-01-05T15:02:49.952Z,5.97
2019-01-05T15:06:16.892Z,5.37
2019-01-05T15:09:52.894Z,6.40
2019-01-05T15:13:19.895Z,6.50
2019-01-05T15:16:45.455Z,5.60
2019-01-05T15:20:07.943Z,5.00
2019-01-05T15:23:38.147Z,5.10
2019-01-05T15:27:11.351Z,5.50
2019-01-05T15:30:50.444Z,6.00
2019-01-05T15:34:23.395Z,5.70
2019-01-05T15:37:45.887Z,8.70
2019-01-05T15:41:21.832Z,13.30
2019-01-05T15:44:52.706Z,17.60
2019-01-05T15:48:20.415Z,19.83
2019-01-05T15:51:44.446Z,12.67
2019-01-05T15:55:16.988Z,9.97
2019-01-05T15:58:56.119Z,8.50
2019-01-05T16:02:18.826Z,8.53
2019-01-05T16:05:51.943Z,9.50
2019-01-05T16:09:14.983Z,14.00
2019-01-05T16:12:37.699Z,13.50
2019-01-05T16:16:17.202Z,16.03
2019-01-05T16:19:59.596Z,14.13
2019-01-05T16:23:22.752Z,9.10
2019-01-05T16:26:45.296Z,6.90
2019-01-05T16:30:01.968Z,7.70
2019-01-05T16:33:34.973Z,8.30
2019-01-05T16:37:11.163Z,8.60
2019-01-05T16:40:33.989Z,11.17
2019-01-05T16:43:47.272Z,10.17
2019-01-05T16:47:17.379Z,10.97
2019-01-05T16:50:41.503Z,8.77
2019-01-05T16:54:04.348Z,10.80
2019-01-05T16:57:31.159Z,8.87
2019-01-05T17:00:59.377Z,8.10
2019-01-05T17:04:26.317Z,9.63
2019-01-05T17:08:05.531Z,9.47
2019-01-05T17:11:41.430Z,7.40
2019-01-05T17:15:00.800Z,7.70
2019-01-05T17:18:37.104Z,8.10
2019-01-05T17:21:59.585Z,11.33
2019-01-05T17:25:23.883Z,8.33
2019-01-05T17:29:02.807Z,8.10
2019-01-05T17:32:25.243Z,8.43
2019-01-05T17:35:58.211Z,8.20
2019-01-05T17:39:15.354Z,9.67
2019-01-05T17:42:48.363Z,7.57
2019-01-05T17:46:05.216Z,6.63
2019-01-05T17:49:32.295Z,7.93
2019-01-05T17:53:02.447Z,7.43
2019-01-05T17:56:24.941Z,31.73
2019-01-05T17:59:51.292Z,19.00
2019-01-05T18:03:33.347Z,8.00
2019-01-05T18:07:12.693Z,13.87
2019-01-05T18:10:35.385Z,9.60
2019-01-05T18:13:58.191Z,10.77
2019-01-05T18:17:21.113Z,11.50
2019-01-05T18:20:51.403Z,11.33
2019-01-05T18:24:15.481Z,9.63
2019-01-05T18:27:38.234Z,10.47
2019-01-05T18:31:14.242Z,10.93
2019-01-05T18:34:53.323Z,9.43
2019-01-05T18:38:17.416Z,11.20
2019-01-05T18:41:47.819Z,14.50
2019-01-05T18:45:10.388Z,15.17
2019-01-05T18:48:32.938Z,15.87
2019-01-05T18:52:06.008Z,15.10
2019-01-05T18:55:42.474Z,16.30
2019-01-05T18:59:05.149Z,16.00
2019-01-05T19:02:29.065Z,15.07
2019-01-05T19:05:56.011Z,14.93
2019-01-05T19:09:18.728Z,13.40
2019-01-05T19:12:38.277Z,12.37
2019-01-05T19:16:02.527Z,12.83
2019-01-05T19:19:25.028Z,12.77
2019-01-05T19:23:01.074Z,12.57
2019-01-05T19:26:23.319Z,12.90
2019-01-05T19:29:46.578Z,11.93
2019-01-05T19:33:06.404Z,11.87
2019-01-05T19:36:32.995Z,11.03
2019-01-05T19:39:57.615Z,9.20
2019-01-05T19:43:20.078Z,19.73
2019-01-05T19:46:42.595Z,10.90
2019-01-05T19:50:05.212Z,16.57
2019-01-05T19:53:30.519Z,12.70
2019-01-05T19:57:09.757Z,10.23
2019-01-05T20:00:36.801Z,9.93
2019-01-05T20:03:59.746Z,9.97
2019-01-05T20:07:22.551Z,9.73
2019-01-05T20:10:55.829Z,10.60
2019-01-05T20:14:25.408Z,11.93
2019-01-05T20:17:47.820Z,12.20
2019-01-05T20:21:18.267Z,14.13
2019-01-05T20:24:37.220Z,13.53
2019-01-05T20:28:01.255Z,14.40
2019-01-05T20:31:24.448Z,12.30
2019-01-05T20:34:48.626Z,14.50
2019-01-05T20:38:24.960Z,13.00
2019-01-05T20:42:01.343Z,13.10
2019-01-05T20:45:31.836Z,11.40
2019-01-05T20:48:50.590Z,11.83
2019-01-05T20:52:13.193Z,12.20
2019-01-05T20:55:36.172Z,11.37
2019-01-05T20:58:58.752Z,12.20
2019-01-05T21:02:21.442Z,10.17
2019-01-05T21:05:53.750Z,12.10
2019-01-05T21:09:29.981Z,11.27
2019-01-05T21:12:54.154Z,10.70
2019-01-05T21:16:24.575Z,10.90
2019-01-05T21:20:00.258Z,11.40
2019-01-05T21:23:23.219Z,10.97
2019-01-05T21:26:53.091Z,11.53
2019-01-05T21:30:12.387Z,10.33
2019-01-05T21:33:35.123Z,10.00
2019-01-05T21:36:58.311Z,10.70
2019-01-05T21:40:22.491Z,10.97
2019-01-05T21:43:45.919Z,9.60
2019-01-05T21:47:08.713Z,10.80
2019-01-05T21:50:31.342Z,9.70
2019-01-05T21:54:13.369Z,9.97
2019-01-05T21:57:36.026Z,8.93
2019-01-05T22:01:12.248Z,8.20
2019-01-05T22:04:49.727Z,9.43
2019-01-05T22:08:13.905Z,9.80
2019-01-05T22:11:31.645Z,11.13
2019-01-05T22:15:08.427Z,10.70
2019-01-05T22:18:38.628Z,9.33
2019-01-05T22:21:58.903Z,8.97
2019-01-05T22:25:40.947Z,9.73
2019-01-05T22:29:03.804Z,10.70
2019-01-05T22:32:42.903Z,11.63
2019-01-05T22:36:05.442Z,10.27
2019-01-05T22:39:27.898Z,8.30
2019-01-05T22:42:54.907Z,9.17
2019-01-05T22:46:19.270Z,6.90
2019-01-05T22:49:48.013Z,9.27
2019-01-05T22:53:12.136Z,8.70
2019-01-05T22:56:51.423Z,8.57
2019-01-05T23:00:30.366Z,8.90
2019-01-05T23:04:12.785Z,8.20
2019-01-05T23:07:35.319Z,7.67
2019-01-05T23:10:58.246Z,7.83
2019-01-05T23:14:26.411Z,7.77
2019-01-05T23:17:50.514Z,7.97
2019-01-05T23:21:13.331Z,8.90
2019-01-05T23:24:46.179Z,8.17
2019-01-05T23:28:09.171Z,8.37
2019-01-05T23:31:42.363Z,7.83
2019-01-05T23:35:06.570Z,7.70
2019-01-05T23:38:29.019Z,7.83
2019-01-05T23:42:01.879Z,7.50
2019-01-05T23:45:32.144Z,10.23
2019-01-05T23:48:49.998Z,8.63
2019-01-05T23:52:11.467Z,14.10
2019-01-05T23:55:34.366Z,7.60
2019-01-05T23:59:10.683Z,18.77
